Burdine, Kentucky
Current Conditions -  °F | °C
As of 11:55 AM on Friday 28 Nov 2014 (Local Time) from KLNP Reporting Station
Broken Clouds Broken Clouds  
Wind Chill: 30°   Ceiling: 6000
Heat Index: 30°   Visibility: 10mi
Dew Point: 19°   Wind: 0mph
Humidity: 64%   Direction: NA
Pressure: 30.27"   Gusts: NA
Location:  37.19°N, 82.6°W
Report Text: KLNP 281655Z AUTO 00000KT 10SM SCT017 BKN060 BKN110 M01/M07 A3027 RMK AO2
Loading
Personal Weather Stations






























Interactive Weather Map New forecast layout! Learn more

10-Day Weather Forecast

Advertisements
Track Severe Weather on mobile